Time;durP1;ratioP1;P1;durP2;ratioP2;P2;SDS_P1;SDS_P2;PMS_P1;PMS_P2;Temp;Humidity;BMP_temperature;BMP_pressure;BME280_temperature;BME280_humidity;BME280_pressure;Samples;Min_cycle;Max_cycle;Signal;HPM_P1;HPM_P2
2022/07/25 00:01:16;;;;;;;4.57;2.13;;;;;;;;;;4991936;28;20240;-52
2022/07/25 00:03:43;;;;;;;1.80;1.70;;;;;;;;;;5004418;28;20252;-53
2022/07/25 00:06:09;;;;;;;2.47;2.28;;;;;;;;;;4999242;28;20324;-53
2022/07/25 00:08:35;;;;;;;2.10;1.90;;;;;;;;;;4997210;28;20229;-54
2022/07/25 00:11:02;;;;;;;2.58;1.95;;;;;;;;;;4998079;28;20245;-53
2022/07/25 00:13:28;;;;;;;3.03;2.10;;;;;;;;;;4999035;28;20605;-51
2022/07/25 00:15:54;;;;;;;2.70;2.10;;;;;;;;;;5002329;28;20719;-53
2022/07/25 00:18:22;;;;;;;2.38;2.17;;;;;;;;;;4999552;28;20229;-52
2022/07/25 00:20:48;;;;;;;2.75;1.85;;;;;;;;;;4998454;28;20330;-52
2022/07/25 00:23:15;;;;;;;2.60;2.15;;;;;;;;;;4998441;28;20229;-52
2022/07/25 00:25:41;;;;;;;2.05;1.90;;;;;;;;;;4999016;28;20373;-53
2022/07/25 00:28:07;;;;;;;2.13;1.98;;;;;;;;;;5006099;28;20245;-53
2022/07/25 00:30:34;;;;;;;2.30;2.10;;;;;;;;;;5001400;28;20236;-52
2022/07/25 00:33:00;;;;;;;1.65;1.55;;;;;;;;;;5003422;28;20238;-54
2022/07/25 00:35:28;;;;;;;1.90;1.80;;;;;;;;;;4997740;28;20287;-52
2022/07/25 00:37:54;;;;;;;3.47;1.85;;;;;;;;;;4996982;28;20257;-52
2022/07/25 00:40:20;;;;;;;1.83;1.73;;;;;;;;;;5001443;28;20300;-52
2022/07/25 00:42:47;;;;;;;3.28;2.17;;;;;;;;;;4999810;28;20229;-53
2022/07/25 00:45:13;;;;;;;3.33;2.40;;;;;;;;;;4998336;28;20244;-52
2022/07/25 00:47:40;;;;;;;2.40;2.20;;;;;;;;;;5012659;28;20225;-53
2022/07/25 00:50:07;;;;;;;1.95;1.80;;;;;;;;;;5002900;28;20240;-52
2022/07/25 00:52:34;;;;;;;3.03;2.00;;;;;;;;;;4998824;28;20235;-52
2022/07/25 00:55:01;;;;;;;3.25;2.20;;;;;;;;;;5003380;28;20257;-52
2022/07/25 00:57:27;;;;;;;2.53;1.55;;;;;;;;;;5000188;28;20226;-53
2022/07/25 00:59:54;;;;;;;2.60;2.40;;;;;;;;;;4999350;28;20229;-52
2022/07/25 01:02:20;;;;;;;2.35;2.17;;;;;;;;;;4997920;28;20233;-52
2022/07/25 01:04:46;;;;;;;1.95;1.85;;;;;;;;;;5006805;28;20229;-52
2022/07/25 01:07:13;;;;;;;2.13;1.92;;;;;;;;;;4999451;28;20623;-53
2022/07/25 01:09:41;;;;;;;6.28;2.38;;;;;;;;;;5002889;28;20229;-52
2022/07/25 01:12:07;;;;;;;2.00;1.80;;;;;;;;;;5000821;28;20240;-52
2022/07/25 01:14:34;;;;;;;2.08;1.98;;;;;;;;;;5002839;28;20233;-52
2022/07/25 01:17:00;;;;;;;2.25;2.00;;;;;;;;;;5005751;28;20260;-53
2022/07/25 01:19:26;;;;;;;1.85;1.75;;;;;;;;;;5013173;28;20744;-53
2022/07/25 01:21:55;;;;;;;2.42;2.25;;;;;;;;;;4999084;28;20245;-53
2022/07/25 01:24:21;;;;;;;3.85;2.53;;;;;;;;;;5004452;28;20241;-55
2022/07/25 01:26:47;;;;;;;2.20;2.10;;;;;;;;;;5002943;28;20237;-54
2022/07/25 01:29:14;;;;;;;2.08;1.88;;;;;;;;;;5003070;28;20237;-52
2022/07/25 01:31:40;;;;;;;1.92;1.83;;;;;;;;;;5004507;28;20259;-53
2022/07/25 01:34:06;;;;;;;1.95;1.80;;;;;;;;;;5007563;28;20329;-53
2022/07/25 01:36:33;;;;;;;2.13;1.92;;;;;;;;;;4998654;28;20332;-52
2022/07/25 01:39:00;;;;;;;1.85;1.75;;;;;;;;;;4998818;28;20244;-52
2022/07/25 01:41:27;;;;;;;2.33;2.13;;;;;;;;;;5001816;28;20734;-54
2022/07/25 01:43:53;;;;;;;2.22;2.03;;;;;;;;;;5008877;28;20248;-52
2022/07/25 01:46:19;;;;;;;1.90;1.80;;;;;;;;;;5005995;28;20241;-53
2022/07/25 01:48:46;;;;;;;2.28;2.08;;;;;;;;;;5010346;28;20240;-53
2022/07/25 01:51:12;;;;;;;2.45;2.13;;;;;;;;;;5008284;28;20238;-54
2022/07/25 01:53:38;;;;;;;2.80;2.40;;;;;;;;;;5013509;28;20236;-53
2022/07/25 01:56:06;;;;;;;2.50;2.30;;;;;;;;;;5006397;28;20229;-52
2022/07/25 01:58:33;;;;;;;2.03;1.92;;;;;;;;;;4993532;28;20240;-52
2022/07/25 02:01:00;;;;;;;2.28;2.10;;;;;;;;;;5001643;28;21158;-52
2022/07/25 02:03:29;;;;;;;2.10;1.95;;;;;;;;;;5007609;28;20233;-53
2022/07/25 02:05:56;;;;;;;3.33;2.00;;;;;;;;;;4997571;28;20229;-53
2022/07/25 02:08:22;;;;;;;1.90;1.80;;;;;;;;;;4997747;28;20229;-53
2022/07/25 02:10:49;;;;;;;5.30;2.33;;;;;;;;;;5001276;28;20485;-53
2022/07/25 02:13:16;;;;;;;2.03;1.77;;;;;;;;;;4999655;28;20233;-53
2022/07/25 02:15:43;;;;;;;2.28;2.08;;;;;;;;;;5004998;28;20236;-51
2022/07/25 02:18:09;;;;;;;2.20;2.00;;;;;;;;;;5003446;28;20264;-52
2022/07/25 02:20:35;;;;;;;2.40;2.20;;;;;;;;;;4994572;28;20238;-52
2022/07/25 02:23:02;;;;;;;2.60;2.03;;;;;;;;;;4996751;28;20613;-51
2022/07/25 02:25:29;;;;;;;2.20;2.00;;;;;;;;;;5001705;28;20233;-54
2022/07/25 02:27:55;;;;;;;2.25;1.80;;;;;;;;;;4997241;28;20287;-51
2022/07/25 02:30:23;;;;;;;3.10;2.30;;;;;;;;;;5003279;28;20304;-54
2022/07/25 02:32:49;;;;;;;1.80;1.70;;;;;;;;;;5012730;28;20323;-51
2022/07/25 02:35:16;;;;;;;2.88;2.28;;;;;;;;;;4995161;28;20230;-53
2022/07/25 02:37:42;;;;;;;1.83;1.73;;;;;;;;;;4997354;28;20234;-52
2022/07/25 02:40:09;;;;;;;1.85;1.75;;;;;;;;;;4991022;28;20244;-53
2022/07/25 02:42:35;;;;;;;1.98;1.70;;;;;;;;;;5009033;28;20228;-52
2022/07/25 02:45:02;;;;;;;2.10;2.00;;;;;;;;;;4997570;28;20288;-52
2022/07/25 02:47:30;;;;;;;2.22;1.90;;;;;;;;;;5002613;28;20233;-52
2022/07/25 02:49:56;;;;;;;2.03;1.85;;;;;;;;;;5002068;28;20232;-53
2022/07/25 02:52:22;;;;;;;2.55;1.70;;;;;;;;;;5004607;28;20233;-52
2022/07/25 02:54:49;;;;;;;2.65;1.70;;;;;;;;;;5002838;28;20235;-53
2022/07/25 02:57:16;;;;;;;2.65;2.38;;;;;;;;;;5012635;28;20292;-52
2022/07/25 02:59:42;;;;;;;2.10;2.00;;;;;;;;;;4997495;28;20287;-53
2022/07/25 03:02:08;;;;;;;1.92;1.83;;;;;;;;;;4994662;28;20248;-52
2022/07/25 03:04:36;;;;;;;2.17;1.98;;;;;;;;;;5001038;28;20229;-52
2022/07/25 03:07:02;;;;;;;1.95;1.85;;;;;;;;;;4993016;28;20241;-52
2022/07/25 03:09:29;;;;;;;2.53;2.00;;;;;;;;;;5002137;28;20319;-51
2022/07/25 03:11:55;;;;;;;2.85;2.13;;;;;;;;;;5016828;28;20621;-53
2022/07/25 03:14:21;;;;;;;3.88;2.13;;;;;;;;;;5002805;28;20241;-52
2022/07/25 03:16:48;;;;;;;3.60;1.73;;;;;;;;;;5003050;28;20237;-53
2022/07/25 03:19:14;;;;;;;2.08;1.83;;;;;;;;;;5002791;28;20241;-53
2022/07/25 03:21:42;;;;;;;1.83;1.73;;;;;;;;;;5001328;28;20515;-53
2022/07/25 03:24:08;;;;;;;2.30;2.10;;;;;;;;;;4997261;28;20229;-53
2022/07/25 03:26:34;;;;;;;2.03;1.92;;;;;;;;;;5003901;28;20234;-53
2022/07/25 03:29:01;;;;;;;4.90;2.03;;;;;;;;;;4997647;28;20241;-52
2022/07/25 03:31:27;;;;;;;2.08;1.92;;;;;;;;;;4997723;28;20259;-53
2022/07/25 03:33:53;;;;;;;1.92;1.83;;;;;;;;;;5002622;28;20237;-53
2022/07/25 03:36:20;;;;;;;2.30;2.03;;;;;;;;;;5003224;28;20237;-53
2022/07/25 03:38:47;;;;;;;2.20;1.98;;;;;;;;;;4999217;28;20251;-54
2022/07/25 03:41:14;;;;;;;2.15;2.00;;;;;;;;;;5011434;28;20249;-52
2022/07/25 03:43:40;;;;;;;2.97;2.10;;;;;;;;;;5006785;28;20243;-53
2022/07/25 03:46:06;;;;;;;2.22;1.95;;;;;;;;;;5003020;28;20260;-52
2022/07/25 03:48:33;;;;;;;1.95;1.85;;;;;;;;;;4999220;28;20243;-52
2022/07/25 03:51:00;;;;;;;2.65;2.00;;;;;;;;;;4992416;28;20244;-52
2022/07/25 03:53:26;;;;;;;2.47;1.90;;;;;;;;;;5014444;28;20241;-53
2022/07/25 03:55:54;;;;;;;1.77;1.65;;;;;;;;;;5010968;28;20233;-52
2022/07/25 03:58:20;;;;;;;2.08;1.83;;;;;;;;;;5006065;28;20316;-52
2022/07/25 04:00:47;;;;;;;2.42;1.70;;;;;;;;;;4993482;28;20236;-52
2022/07/25 04:03:14;;;;;;;3.45;2.38;;;;;;;;;;4995620;28;20245;-52
2022/07/25 04:05:40;;;;;;;2.25;2.03;;;;;;;;;;5005338;28;20237;-52
2022/07/25 04:08:06;;;;;;;3.80;2.00;;;;;;;;;;5001179;28;20249;-53
2022/07/25 04:10:33;;;;;;;2.17;2.03;;;;;;;;;;5012989;28;20912;-53
2022/07/25 04:13:00;;;;;;;2.55;2.35;;;;;;;;;;5003714;28;20240;-53
2022/07/25 04:15:27;;;;;;;2.00;1.90;;;;;;;;;;4999256;28;20251;-52
2022/07/25 04:17:54;;;;;;;4.53;2.47;;;;;;;;;;5002628;28;20704;-53
2022/07/25 04:20:20;;;;;;;1.90;1.80;;;;;;;;;;5004025;28;20232;-52
2022/07/25 04:22:46;;;;;;;2.15;2.00;;;;;;;;;;5001982;28;20241;-51
2022/07/25 04:25:12;;;;;;;2.78;2.05;;;;;;;;;;5008965;28;20332;-53
2022/07/25 04:27:39;;;;;;;2.53;2.20;;;;;;;;;;5005455;28;20349;-53
2022/07/25 04:30:07;;;;;;;4.13;1.80;;;;;;;;;;4999669;28;20237;-52
2022/07/25 04:32:34;;;;;;;4.30;2.45;;;;;;;;;;5004746;28;20237;-52
2022/07/25 04:35:00;;;;;;;2.50;2.30;;;;;;;;;;5007061;28;20237;-52
2022/07/25 04:37:26;;;;;;;2.28;2.10;;;;;;;;;;5007073;28;20232;-52
2022/07/25 04:39:53;;;;;;;2.30;2.08;;;;;;;;;;5002401;28;20840;-51
2022/07/25 04:42:19;;;;;;;2.22;1.65;;;;;;;;;;5013499;28;20604;-53
2022/07/25 04:44:45;;;;;;;1.83;1.73;;;;;;;;;;5002096;28;20230;-53
2022/07/25 04:47:13;;;;;;;3.00;2.30;;;;;;;;;;5003225;28;20232;-52
2022/07/25 04:49:39;;;;;;;4.18;1.95;;;;;;;;;;5002743;28;20236;-52
2022/07/25 04:52:06;;;;;;;2.58;1.95;;;;;;;;;;5010570;28;20248;-52
2022/07/25 04:54:32;;;;;;;2.30;2.00;;;;;;;;;;5004787;28;20237;-53
2022/07/25 04:56:58;;;;;;;1.90;1.80;;;;;;;;;;5012386;28;20240;-53
2022/07/25 04:59:25;;;;;;;4.22;2.40;;;;;;;;;;4993900;28;20813;-53
2022/07/25 05:01:51;;;;;;;2.80;2.40;;;;;;;;;;5000140;28;20267;-52
2022/07/25 05:04:19;;;;;;;3.15;2.38;;;;;;;;;;5001655;28;20312;-53
2022/07/25 05:06:45;;;;;;;2.17;1.95;;;;;;;;;;4998697;28;20245;-54
2022/07/25 05:09:11;;;;;;;2.50;2.30;;;;;;;;;;5005613;28;20610;-53
2022/07/25 05:11:38;;;;;;;2.47;2.28;;;;;;;;;;5013231;28;20795;-52
2022/07/25 05:14:04;;;;;;;2.50;2.30;;;;;;;;;;5000058;28;20237;-52
2022/07/25 05:16:31;;;;;;;2.20;2.00;;;;;;;;;;5004509;28;20233;-53
2022/07/25 05:18:57;;;;;;;3.22;2.10;;;;;;;;;;4997658;28;20237;-51
2022/07/25 05:21:26;;;;;;;4.90;2.90;;;;;;;;;;5005354;28;20711;-52
2022/07/25 05:23:52;;;;;;;2.35;2.15;;;;;;;;;;5002246;28;20240;-52
2022/07/25 05:26:19;;;;;;;3.67;2.47;;;;;;;;;;5018182;28;20255;-52
2022/07/25 05:28:45;;;;;;;7.13;2.63;;;;;;;;;;5001489;28;20237;-51
2022/07/25 05:31:11;;;;;;;2.55;2.35;;;;;;;;;;5005704;28;20727;-52
2022/07/25 05:33:38;;;;;;;3.00;2.80;;;;;;;;;;5005632;28;20472;-52
2022/07/25 05:36:04;;;;;;;2.72;2.53;;;;;;;;;;4996464;28;20265;-52
2022/07/25 05:38:32;;;;;;;5.75;3.17;;;;;;;;;;4998216;28;20311;-52
2022/07/25 05:40:58;;;;;;;4.40;2.63;;;;;;;;;;5005402;28;20248;-52
2022/07/25 05:43:25;;;;;;;2.90;2.38;;;;;;;;;;5013483;28;20237;-53
2022/07/25 05:45:51;;;;;;;2.63;2.22;;;;;;;;;;4996007;28;20240;-52
2022/07/25 05:48:18;;;;;;;3.78;3.22;;;;;;;;;;5000475;28;20912;-53
2022/07/25 05:50:45;;;;;;;2.95;2.75;;;;;;;;;;5003916;28;20244;-52
2022/07/25 05:53:11;;;;;;;3.47;2.90;;;;;;;;;;5010202;28;20723;-52
2022/07/25 05:55:39;;;;;;;2.80;2.60;;;;;;;;;;5009572;28;20592;-51
2022/07/25 05:58:05;;;;;;;3.65;2.70;;;;;;;;;;5019710;28;20723;-52
2022/07/25 06:00:31;;;;;;;4.72;2.97;;;;;;;;;;5003863;28;20241;-51
2022/07/25 06:02:58;;;;;;;3.85;3.13;;;;;;;;;;5011764;28;20240;-52
2022/07/25 06:05:24;;;;;;;3.28;2.97;;;;;;;;;;4996997;28;20289;-53
2022/07/25 06:07:51;;;;;;;3.28;2.97;;;;;;;;;;5001175;28;20237;-53
2022/07/25 06:10:19;;;;;;;4.45;3.33;;;;;;;;;;4997571;28;20242;-53
2022/07/25 06:12:47;;;;;;;3.92;2.80;;;;;;;;;;5003657;28;20233;-54
2022/07/25 06:15:13;;;;;;;4.22;3.05;;;;;;;;;;5011100;28;20243;-52
2022/07/25 06:17:40;;;;;;;5.57;3.80;;;;;;;;;;5011755;28;20244;-53
2022/07/25 06:20:06;;;;;;;5.00;3.10;;;;;;;;;;5005403;28;20243;-54
2022/07/25 06:22:33;;;;;;;3.63;3.33;;;;;;;;;;4999088;28;20226;-53
2022/07/25 06:24:59;;;;;;;7.65;3.70;;;;;;;;;;5013958;28;20245;-52
2022/07/25 06:27:25;;;;;;;4.43;3.47;;;;;;;;;;5011046;28;20237;-52
2022/07/25 06:29:53;;;;;;;5.65;3.58;;;;;;;;;;5002289;28;20265;-53
2022/07/25 06:32:19;;;;;;;4.25;3.72;;;;;;;;;;5015911;28;20232;-52
2022/07/25 06:34:46;;;;;;;5.55;3.58;;;;;;;;;;5003621;28;20239;-52
2022/07/25 06:37:12;;;;;;;4.03;3.63;;;;;;;;;;4997622;28;20241;-53
2022/07/25 06:39:38;;;;;;;3.63;3.35;;;;;;;;;;5000515;28;20232;-52
2022/07/25 06:42:05;;;;;;;3.13;2.85;;;;;;;;;;4996377;28;20233;-52
2022/07/25 06:44:32;;;;;;;5.80;3.95;;;;;;;;;;5007460;28;20232;-52
2022/07/25 06:46:59;;;;;;;4.35;3.22;;;;;;;;;;5015863;28;20232;-52
2022/07/25 06:49:26;;;;;;;3.97;3.22;;;;;;;;;;5002136;28;20320;-52
2022/07/25 06:51:52;;;;;;;4.28;3.63;;;;;;;;;;5000434;28;20237;-53
2022/07/25 06:54:19;;;;;;;4.15;3.80;;;;;;;;;;5015636;28;20711;-52
2022/07/25 06:56:45;;;;;;;3.75;3.45;;;;;;;;;;4997644;28;20711;-53
2022/07/25 06:59:11;;;;;;;4.60;3.80;;;;;;;;;;5002013;28;20815;-52
2022/07/25 07:01:38;;;;;;;4.18;3.42;;;;;;;;;;5005354;28;20229;-51
2022/07/25 07:04:06;;;;;;;6.43;3.97;;;;;;;;;;5003138;28;20639;-53
2022/07/25 07:06:32;;;;;;;4.88;3.40;;;;;;;;;;4998751;28;20229;-53
2022/07/25 07:08:59;;;;;;;5.50;4.13;;;;;;;;;;5007905;28;20248;-53
2022/07/25 07:11:25;;;;;;;4.07;3.78;;;;;;;;;;4997216;28;20240;-52
2022/07/25 07:13:51;;;;;;;4.68;3.75;;;;;;;;;;4995692;28;20659;-52
2022/07/25 07:16:18;;;;;;;4.78;4.47;;;;;;;;;;4996678;28;20317;-52
2022/07/25 07:18:44;;;;;;;4.50;3.78;;;;;;;;;;5002118;28;20225;-52
2022/07/25 07:21:12;;;;;;;5.53;3.70;;;;;;;;;;5000348;28;20247;-51
2022/07/25 07:23:38;;;;;;;5.15;4.50;;;;;;;;;;5000953;28;20233;-52
2022/07/25 07:26:04;;;;;;;5.38;4.70;;;;;;;;;;5002867;28;20237;-52
2022/07/25 07:28:30;;;;;;;4.82;4.43;;;;;;;;;;5002782;28;20745;-53
2022/07/25 07:30:57;;;;;;;17.73;10.48;;;;;;;;;;4998902;28;20236;-52
2022/07/25 07:33:23;;;;;;;6.93;4.35;;;;;;;;;;4999009;28;20606;-52
2022/07/25 07:35:50;;;;;;;5.40;4.90;;;;;;;;;;5000524;28;20247;-52
2022/07/25 07:38:18;;;;;;;5.57;4.90;;;;;;;;;;4992375;28;20598;-52
2022/07/25 07:40:44;;;;;;;5.05;4.55;;;;;;;;;;5003879;28;20228;-52
2022/07/25 07:43:10;;;;;;;5.85;4.22;;;;;;;;;;5006933;28;20744;-52
2022/07/25 07:45:37;;;;;;;5.28;4.53;;;;;;;;;;4999300;28;20737;-53
2022/07/25 07:48:03;;;;;;;5.70;5.13;;;;;;;;;;4998661;28;20707;-53
2022/07/25 07:50:30;;;;;;;6.45;5.55;;;;;;;;;;4996852;28;20268;-52
2022/07/25 07:52:57;;;;;;;5.88;5.30;;;;;;;;;;5002862;28;20228;-52
2022/07/25 07:58:08;;;;;;;5.57;5.07;;;;;;;;;;5018976;28;20280;-53
2022/07/25 08:00:38;;;;;;;5.28;4.88;;;;;;;;;;4994055;28;20245;-53
2022/07/25 08:03:05;;;;;;;6.57;5.97;;;;;;;;;;4999884;28;20287;-53
2022/07/25 08:05:33;;;;;;;5.45;5.05;;;;;;;;;;5004243;28;20248;-52
2022/07/25 08:07:59;;;;;;;6.93;5.15;;;;;;;;;;5001934;28;20229;-52
2022/07/25 08:10:28;;;;;;;4.78;4.38;;;;;;;;;;5016043;28;20738;-53
2022/07/25 08:12:55;;;;;;;5.68;4.72;;;;;;;;;;4998808;28;20240;-53
2022/07/25 08:15:22;;;;;;;5.00;4.60;;;;;;;;;;4997897;28;20246;-52
2022/07/25 08:17:50;;;;;;;5.40;4.90;;;;;;;;;;5000200;28;20706;-52
2022/07/25 08:20:17;;;;;;;5.18;4.78;;;;;;;;;;5005235;28;20747;-53
2022/07/25 08:22:43;;;;;;;6.10;5.50;;;;;;;;;;5008242;28;20236;-53
2022/07/25 08:25:12;;;;;;;7.40;5.28;;;;;;;;;;4993226;28;20265;-53
2022/07/25 08:27:40;;;;;;;5.75;5.07;;;;;;;;;;4996648;28;20240;-52
2022/07/25 08:30:07;;;;;;;5.97;5.43;;;;;;;;;;5002445;28;20638;-52
2022/07/25 08:32:34;;;;;;;5.90;5.30;;;;;;;;;;5001497;28;20231;-54
2022/07/25 08:35:00;;;;;;;6.95;6.30;;;;;;;;;;5016615;28;20234;-53
2022/07/25 08:37:27;;;;;;;7.30;6.57;;;;;;;;;;5000590;28;20695;-52
2022/07/25 08:39:53;;;;;;;7.10;6.50;;;;;;;;;;5004402;28;20256;-52
2022/07/25 08:42:20;;;;;;;7.03;6.35;;;;;;;;;;5001158;28;20240;-53
2022/07/25 08:44:50;;;;;;;6.18;5.70;;;;;;;;;;4993203;28;20230;-52
2022/07/25 08:47:17;;;;;;;7.05;6.45;;;;;;;;;;4998766;28;20287;-53
2022/07/25 08:49:44;;;;;;;8.73;6.60;;;;;;;;;;5010442;28;20243;-53
2022/07/25 08:52:10;;;;;;;7.22;6.47;;;;;;;;;;5002124;28;20237;-53
2022/07/25 08:54:36;;;;;;;8.73;6.90;;;;;;;;;;5003459;28;20330;-52
2022/07/25 08:57:03;;;;;;;10.27;6.47;;;;;;;;;;5001734;28;20237;-52
2022/07/25 08:59:30;;;;;;;7.20;6.50;;;;;;;;;;5002795;28;20704;-53
2022/07/25 09:02:01;;;;;;;8.70;6.65;;;;;;;;;;4999714;28;20243;-52
2022/07/25 09:04:27;;;;;;;7.10;6.50;;;;;;;;;;5012075;28;20233;-51
2022/07/25 09:06:54;;;;;;;7.35;6.75;;;;;;;;;;5000686;28;20233;-52
2022/07/25 09:09:29;;;;;;;7.13;6.53;;;;;;;;;;5002459;28;20233;-52
2022/07/25 09:11:55;;;;;;;6.95;6.35;;;;;;;;;;5008695;28;20238;-52
2022/07/25 09:14:21;;;;;;;8.13;7.43;;;;;;;;;;5012653;28;20684;-52
2022/07/25 09:16:48;;;;;;;7.60;7.00;;;;;;;;;;5002010;28;20241;-52
2022/07/25 09:19:16;;;;;;;7.97;6.38;;;;;;;;;;5004876;28;20237;-54
2022/07/25 09:21:44;;;;;;;7.82;7.13;;;;;;;;;;5019254;28;20324;-53
2022/07/25 09:24:12;;;;;;;8.43;6.47;;;;;;;;;;5024866;28;20315;-52
2022/07/25 09:26:46;;;;;;;7.03;6.47;;;;;;;;;;5010739;28;20240;-52
2022/07/25 09:29:16;;;;;;;8.00;7.22;;;;;;;;;;5005964;28;20252;-53
2022/07/25 09:31:42;;;;;;;7.18;6.25;;;;;;;;;;5006233;28;20247;-52
2022/07/25 09:34:09;;;;;;;7.03;6.53;;;;;;;;;;5017282;28;20730;-52
2022/07/25 09:36:38;;;;;;;8.32;7.43;;;;;;;;;;5006651;28;20237;-53
2022/07/25 09:39:05;;;;;;;7.63;6.63;;;;;;;;;;5003953;28;20711;-52
2022/07/25 09:41:34;;;;;;;7.95;7.03;;;;;;;;;;5003676;28;20250;-53
2022/07/25 09:44:00;;;;;;;7.93;7.30;;;;;;;;;;5000328;28;20241;-52
2022/07/25 09:46:30;;;;;;;7.18;6.57;;;;;;;;;;5003823;28;20226;-55
2022/07/25 09:48:58;;;;;;;7.97;7.30;;;;;;;;;;5017177;28;20808;-56
2022/07/25 09:51:24;;;;;;;8.65;7.63;;;;;;;;;;5006594;28;20237;-53
2022/07/25 09:53:52;;;;;;;7.13;6.63;;;;;;;;;;5005598;28;20727;-52
2022/07/25 09:56:18;;;;;;;10.35;7.60;;;;;;;;;;5005341;28;20240;-52
2022/07/25 09:58:45;;;;;;;7.95;7.25;;;;;;;;;;4999398;28;20226;-52
2022/07/25 10:01:12;;;;;;;7.30;6.70;;;;;;;;;;5003400;28;20754;-52
2022/07/25 10:03:44;;;;;;;8.18;7.47;;;;;;;;;;5004255;28;20248;-53
2022/07/25 10:06:14;;;;;;;7.97;7.30;;;;;;;;;;5014728;28;20236;-52
2022/07/25 10:08:41;;;;;;;7.60;7.00;;;;;;;;;;5001803;28;20241;-52
2022/07/25 10:11:19;;;;;;;7.07;6.45;;;;;;;;;;5006152;28;20232;-52
2022/07/25 10:13:45;;;;;;;7.55;6.85;;;;;;;;;;5011188;28;20236;-52
2022/07/25 10:16:16;;;;;;;7.18;6.47;;;;;;;;;;5019073;28;20229;-52
2022/07/25 10:18:48;;;;;;;7.63;7.03;;;;;;;;;;5016041;28;20232;-53
2022/07/25 10:21:14;;;;;;;8.70;7.90;;;;;;;;;;5012373;28;20265;-51
2022/07/25 10:23:40;;;;;;;8.35;7.55;;;;;;;;;;5006063;28;20232;-53
2022/07/25 10:26:08;;;;;;;9.60;7.72;;;;;;;;;;4998002;28;20288;-52
2022/07/25 10:28:37;;;;;;;8.52;7.53;;;;;;;;;;5000837;28;20302;-50
2022/07/25 10:31:14;;;;;;;9.77;8.88;;;;;;;;;;5007032;28;20233;-51
2022/07/25 10:33:41;;;;;;;8.23;7.15;;;;;;;;;;5004264;28;20228;-51
2022/07/25 10:36:07;;;;;;;8.50;7.72;;;;;;;;;;5007085;28;20248;-52
2022/07/25 10:38:34;;;;;;;8.20;7.40;;;;;;;;;;5006615;28;20229;-52
2022/07/25 10:41:01;;;;;;;7.53;6.93;;;;;;;;;;5003730;28;20244;-52
2022/07/25 10:43:28;;;;;;;7.88;7.07;;;;;;;;;;5010410;28;20232;-53
2022/07/25 10:45:57;;;;;;;12.68;7.53;;;;;;;;;;5012708;28;20704;-53
2022/07/25 10:48:24;;;;;;;7.97;7.38;;;;;;;;;;5015478;28;20229;-52
2022/07/25 10:50:52;;;;;;;7.45;6.85;;;;;;;;;;5015527;28;20240;-52
2022/07/25 10:53:28;;;;;;;10.95;7.47;;;;;;;;;;5006543;28;20244;-52
2022/07/25 10:55:58;;;;;;;7.68;7.07;;;;;;;;;;5004251;28;20236;-51
2022/07/25 10:58:24;;;;;;;8.32;7.63;;;;;;;;;;5002923;28;20239;-51
2022/07/25 11:00:51;;;;;;;7.15;6.55;;;;;;;;;;5006736;28;20236;-53
2022/07/25 11:03:19;;;;;;;7.25;6.72;;;;;;;;;;5006189;28;20246;-52
2022/07/25 11:05:46;;;;;;;8.13;7.50;;;;;;;;;;5019267;28;20232;-51
2022/07/25 11:08:13;;;;;;;7.65;7.05;;;;;;;;;;5002719;28;20438;-52
2022/07/25 11:10:39;;;;;;;7.28;6.78;;;;;;;;;;5005620;28;20235;-53
2022/07/25 11:13:09;;;;;;;8.02;7.32;;;;;;;;;;5004730;28;20233;-52
2022/07/25 11:15:35;;;;;;;8.20;7.60;;;;;;;;;;5001052;28;20237;-52
2022/07/25 11:18:01;;;;;;;7.32;6.68;;;;;;;;;;5003061;28;20240;-52
2022/07/25 11:20:29;;;;;;;7.13;6.53;;;;;;;;;;4998581;28;20244;-52
2022/07/25 11:22:56;;;;;;;7.72;7.00;;;;;;;;;;5004395;28;20232;-52
2022/07/25 11:25:22;;;;;;;6.85;6.30;;;;;;;;;;5001072;28;20229;-54
2022/07/25 11:27:56;;;;;;;6.90;6.30;;;;;;;;;;5006157;28;20233;-52
2022/07/25 11:30:22;;;;;;;7.38;6.78;;;;;;;;;;5004943;28;20244;-51
2022/07/25 11:32:49;;;;;;;6.60;6.10;;;;;;;;;;5003731;28;20236;-52
2022/07/25 11:35:19;;;;;;;8.13;7.45;;;;;;;;;;4999024;28;20335;-53
2022/07/25 11:37:48;;;;;;;7.35;6.68;;;;;;;;;;4993265;28;20232;-53
2022/07/25 11:40:16;;;;;;;6.97;6.45;;;;;;;;;;4998423;28;20260;-53
2022/07/25 11:42:43;;;;;;;7.25;6.65;;;;;;;;;;5004790;28;20228;-53
2022/07/25 11:45:16;;;;;;;6.65;6.15;;;;;;;;;;5009320;28;20236;-53
2022/07/25 11:47:42;;;;;;;6.70;6.15;;;;;;;;;;5000808;28;20787;-54
2022/07/25 11:50:13;;;;;;;6.82;6.30;;;;;;;;;;4999316;28;20345;-52
2022/07/25 11:52:41;;;;;;;10.85;6.82;;;;;;;;;;5003523;28;20228;-54
2022/07/25 11:55:10;;;;;;;7.10;6.40;;;;;;;;;;5000500;28;20906;-53
2022/07/25 11:57:37;;;;;;;9.18;6.60;;;;;;;;;;5004546;28;20231;-51
2022/07/25 12:00:09;;;;;;;10.38;7.55;;;;;;;;;;5002035;28;20232;-53
2022/07/25 12:02:36;;;;;;;6.97;6.38;;;;;;;;;;4997762;28;20240;-53
2022/07/25 12:05:04;;;;;;;7.55;6.45;;;;;;;;;;5000069;28;20232;-53
2022/07/25 12:07:38;;;;;;;6.75;6.13;;;;;;;;;;5002486;28;20225;-53
2022/07/25 12:10:04;;;;;;;7.65;6.82;;;;;;;;;;4998242;28;20241;-52
2022/07/25 12:12:42;;;;;;;7.00;6.25;;;;;;;;;;5001272;28;20230;-53
2022/07/25 12:15:09;;;;;;;6.82;6.22;;;;;;;;;;4997410;28;20229;-53
2022/07/25 12:17:35;;;;;;;8.40;7.10;;;;;;;;;;5004979;28;20235;-53
2022/07/25 12:20:02;;;;;;;7.57;6.47;;;;;;;;;;5001265;28;20271;-52
2022/07/25 12:22:28;;;;;;;6.93;6.32;;;;;;;;;;5004143;28;20745;-53
2022/07/25 12:24:54;;;;;;;7.13;6.07;;;;;;;;;;4999440;28;21467;-53
2022/07/25 12:27:24;;;;;;;6.65;6.05;;;;;;;;;;5016420;28;20765;-52
2022/07/25 12:29:52;;;;;;;7.32;6.63;;;;;;;;;;5001524;28;20229;-52
2022/07/25 12:32:18;;;;;;;7.30;6.70;;;;;;;;;;5007790;28;20474;-53
2022/07/25 12:34:45;;;;;;;6.90;6.40;;;;;;;;;;4999893;28;20316;-52
2022/07/25 12:37:11;;;;;;;7.90;6.72;;;;;;;;;;5003643;28;20243;-52
2022/07/25 12:39:37;;;;;;;8.18;6.88;;;;;;;;;;5005645;28;20227;-52
2022/07/25 12:42:04;;;;;;;8.32;6.22;;;;;;;;;;5012851;28;20244;-53
2022/07/25 12:44:31;;;;;;;5.93;5.45;;;;;;;;;;5003123;28;20229;-53
2022/07/25 12:46:58;;;;;;;6.53;5.93;;;;;;;;;;5007496;28;20315;-52
2022/07/25 12:49:24;;;;;;;6.70;6.03;;;;;;;;;;4999136;28;20236;-53
2022/07/25 12:51:51;;;;;;;9.27;6.72;;;;;;;;;;5005621;28;20247;-52
2022/07/25 12:54:17;;;;;;;7.22;6.63;;;;;;;;;;5004806;28;20239;-52
2022/07/25 12:56:43;;;;;;;7.28;6.57;;;;;;;;;;5008472;28;20501;-53
2022/07/25 12:59:10;;;;;;;6.78;6.22;;;;;;;;;;5004348;28;20228;-52
2022/07/25 13:01:36;;;;;;;7.00;6.40;;;;;;;;;;5004387;28;20240;-53
2022/07/25 13:04:06;;;;;;;7.40;6.63;;;;;;;;;;5005043;28;20766;-52
2022/07/25 13:06:32;;;;;;;7.00;6.40;;;;;;;;;;4997137;28;20235;-53
2022/07/25 13:08:58;;;;;;;8.98;6.68;;;;;;;;;;5002383;28;20245;-53
2022/07/25 13:11:25;;;;;;;7.85;7.10;;;;;;;;;;4998711;28;20416;-51
2022/07/25 13:13:51;;;;;;;7.45;6.85;;;;;;;;;;5016415;28;20232;-52
2022/07/25 13:16:17;;;;;;;7.28;6.53;;;;;;;;;;4999632;28;20243;-52
2022/07/25 13:18:44;;;;;;;7.65;6.75;;;;;;;;;;4994420;28;20387;-52
2022/07/25 13:21:11;;;;;;;7.88;7.03;;;;;;;;;;4994268;28;20235;-53
2022/07/25 13:23:38;;;;;;;8.02;7.30;;;;;;;;;;5008897;28;20232;-52
2022/07/25 13:26:05;;;;;;;7.55;6.85;;;;;;;;;;4996000;28;20248;-52
2022/07/25 13:28:31;;;;;;;7.47;6.68;;;;;;;;;;5005920;28;20643;-52
2022/07/25 13:30:58;;;;;;;7.15;6.43;;;;;;;;;;5008279;28;20239;-51
2022/07/25 13:33:24;;;;;;;7.15;6.65;;;;;;;;;;5005009;28;20228;-52
2022/07/25 13:35:51;;;;;;;8.00;7.30;;;;;;;;;;5005406;28;20236;-52
2022/07/25 13:38:19;;;;;;;6.60;5.97;;;;;;;;;;5009383;28;20235;-53
2022/07/25 13:40:45;;;;;;;7.40;6.80;;;;;;;;;;5001535;28;20233;-53
2022/07/25 13:43:13;;;;;;;8.25;6.72;;;;;;;;;;4997668;28;20240;-53
2022/07/25 13:45:40;;;;;;;7.65;6.70;;;;;;;;;;5001804;28;20718;-53
2022/07/25 13:48:07;;;;;;;7.30;5.90;;;;;;;;;;4999992;28;20922;-52
2022/07/25 13:50:33;;;;;;;6.90;6.40;;;;;;;;;;4999290;28;20264;-53
2022/07/25 13:53:00;;;;;;;7.10;6.35;;;;;;;;;;5014220;28;20240;-52
2022/07/25 13:55:28;;;;;;;7.10;6.40;;;;;;;;;;5006163;28;20322;-53
2022/07/25 13:57:55;;;;;;;7.00;6.43;;;;;;;;;;5005620;28;20233;-53
2022/07/25 14:00:22;;;;;;;6.35;5.80;;;;;;;;;;4993458;28;20287;-53
2022/07/25 14:02:48;;;;;;;7.57;6.88;;;;;;;;;;5008055;28;20235;-51
2022/07/25 14:05:15;;;;;;;7.43;6.82;;;;;;;;;;5006293;28;20236;-52
2022/07/25 14:07:42;;;;;;;9.45;6.55;;;;;;;;;;5008188;28;20738;-52
2022/07/25 14:10:09;;;;;;;7.25;6.65;;;;;;;;;;4999059;28;20792;-52
2022/07/25 14:12:38;;;;;;;6.97;6.35;;;;;;;;;;5012106;28;20260;-51
2022/07/25 14:15:05;;;;;;;7.13;6.47;;;;;;;;;;5005199;28;20237;-53
2022/07/25 14:17:32;;;;;;;7.25;6.72;;;;;;;;;;4994479;28;20236;-53
2022/07/25 14:19:58;;;;;;;6.35;5.75;;;;;;;;;;4998294;28;20898;-52
2022/07/25 14:22:25;;;;;;;6.80;6.30;;;;;;;;;;5001182;28;20226;-53
2022/07/25 14:24:51;;;;;;;8.07;6.32;;;;;;;;;;4996863;28;20234;-52
2022/07/25 14:27:18;;;;;;;6.93;6.40;;;;;;;;;;5000862;28;20715;-54
2022/07/25 14:29:45;;;;;;;6.85;6.25;;;;;;;;;;5005031;28;20236;-52
2022/07/25 14:32:12;;;;;;;7.13;6.43;;;;;;;;;;5002180;28;20244;-52
2022/07/25 14:34:39;;;;;;;6.85;6.35;;;;;;;;;;4995381;28;20244;-52
2022/07/25 14:37:05;;;;;;;7.85;6.85;;;;;;;;;;4988198;28;20899;-51
2022/07/25 14:39:32;;;;;;;8.25;6.50;;;;;;;;;;5004966;28;20379;-53
2022/07/25 14:41:58;;;;;;;6.88;6.15;;;;;;;;;;4998429;28;20245;-52
2022/07/25 14:44:25;;;;;;;7.85;6.50;;;;;;;;;;4996343;28;20332;-52